Pagina principale
METAR-TAF:

METAR-TAF

Aeroporti :

Aeroporto di Nouméa-La Tontouta

Nouméa / La Tontouta, Nuova Caledonia

latitudine: 22-01S, longitudine: 166-13E, altezza: 16 m

Osservazione

Il bollettino è stato emesso 30 minuti fa, alle 08:00 UTC
Vento 2 kt da direzioni variabili
Temperature 19°C
Umidità 60%
Pressione 1016 hPa
Visibilità 10 km o più
nessuna nube inferiore a 1500 m e nessun cumulonembo

METAR: NWWW 180800Z AUTO VRB02KT CAVOK 19/11 Q1016 NOSIG

Ora: 19:30 (08:30 UTC)

Previsione

Il bollettino è stato emesso 3 ore e 30 minuti fa, alle 05:00 UTC
Previsione valida dal 18 alle 06 UTC al 19 alle 06 UTC
Vento 5 kt da sud
Visibilità 10 km o più
nessuna nube inferiore a 1500 m e nessun cumulonembo
Evoluzione graduale
dal 18 alle 06 UTC al 18 alle 08 UTC
Vento 2 kt da direzioni variabili

TAF: NWWW 180500Z 1806/1906 17005KT CAVOK BECMG 1806/1808 VRB02KT

Osservazioni e previsioni meteorologiche di più di 4000 aeroporti (messaggi METAR e TAF).

Le stazioni disponibili sono rappresentate dai dischi gialli e rossi sulla carta.

Puntare il mouse per vedere il nome della stazione.

Clicca sopra per visualizzare le osservazioni e previsioni meteorologiche.

Per cambiare la mappa : fare clic sui pulsanti verdi con una croce nera per ingrandire, il pulsante verde con un trattino per diminuire, o sulla freccia verde per le mappe adiacenti.


METAR-TAF: